EGHH/BOH METAR and TAF weather

Enter ICAO airport designator
Station Type Date Time Source
EGHH METAR 2019/05/19 21:20 UTC NOAA

EGHH 192120Z 16002KT 9000 DZRA FEW036 12/11 Q1011


Station Type Date Time Source
EGHH Decoded METAR 2019/05/19 21:20 UTC NOAA

Bournemouth Airport, United Kingdom (EGHH) 50-47N 001-50W 0M
May 19, 2019 - 05:20 PM EDT / 2019.05.19 2120 UTC
Wind: from the SSE (160 degrees) at 2 MPH (2 KT):0
Visibility: 5 mile(s):0
Sky conditions: mostly clear
Weather: drizzle, rain
Temperature: 53 F (12 C)
Dew Point: 51 F (11 C)
Relative Humidity: 93%
Pressure (altimeter): 29.85 in. Hg (1011 hPa)
ob: EGHH 192120Z 16002KT 9000 DZRA FEW036 12/11 Q1011
cycle: 21

Station Type Date Time Source
EGHH TAF 2013/12/01 21:21 UTC NOAA

TAF TAF EGHH 010016Z 3021/0106 CNL

Example: see airport list